createdAt,value
2019-06-19T00:00:13.318Z,22.63
2019-06-19T00:02:43.045Z,22.62
2019-06-19T00:05:09.535Z,22.43
2019-06-19T00:07:36.464Z,22.37
2019-06-19T00:10:04.476Z,22.48
2019-06-19T00:12:33.253Z,22.59
2019-06-19T00:15:02.647Z,22.60
2019-06-19T00:17:32.657Z,22.62
2019-06-19T00:19:58.953Z,22.46
2019-06-19T00:22:25.830Z,22.05
2019-06-19T00:24:53.324Z,21.96
2019-06-19T00:27:20.378Z,21.65
2019-06-19T00:29:47.336Z,21.40
2019-06-19T00:32:14.609Z,21.48
2019-06-19T00:34:41.514Z,21.34
2019-06-19T00:37:08.441Z,21.51
2019-06-19T00:39:35.780Z,21.58
2019-06-19T00:42:02.714Z,21.63
2019-06-19T00:44:30.742Z,21.91
2019-06-19T00:46:57.831Z,22.09
2019-06-19T00:49:24.789Z,22.32
2019-06-19T00:51:52.190Z,22.40
2019-06-19T00:54:21.250Z,22.50
2019-06-19T00:56:48.170Z,22.42
2019-06-19T00:59:15.042Z,22.47
2019-06-19T01:01:43.415Z,22.39
2019-06-19T01:04:11.156Z,22.12
2019-06-19T01:06:40.562Z,21.95
2019-06-19T01:09:07.225Z,22.17
2019-06-19T01:11:34.413Z,22.10
2019-06-19T01:14:01.293Z,22.34
2019-06-19T01:16:28.244Z,22.39
2019-06-19T01:18:55.209Z,22.34
2019-06-19T01:21:22.654Z,22.19
2019-06-19T01:23:51.530Z,21.96
2019-06-19T01:26:20.847Z,21.88
2019-06-19T01:28:47.162Z,21.80
2019-06-19T01:31:14.049Z,22.05
2019-06-19T01:33:41.409Z,22.13
2019-06-19T01:36:11.211Z,22.25
2019-06-19T01:38:38.179Z,22.32
2019-06-19T01:41:05.061Z,22.33
2019-06-19T01:43:32.184Z,22.41
2019-06-19T01:46:00.942Z,22.02
2019-06-19T01:48:31.243Z,22.33
2019-06-19T01:50:57.057Z,22.39
2019-06-19T01:53:23.954Z,22.29
2019-06-19T01:55:50.915Z,21.89
2019-06-19T01:58:17.872Z,21.96
2019-06-19T02:00:44.754Z,22.00
2019-06-19T02:03:11.641Z,22.06
2019-06-19T02:05:40.627Z,21.90
2019-06-19T02:08:07.173Z,21.95
2019-06-19T02:10:34.093Z,21.64
2019-06-19T02:13:01.061Z,21.70
2019-06-19T02:15:28.011Z,21.66
2019-06-19T02:17:55.019Z,21.84
2019-06-19T02:20:22.003Z,21.50
2019-06-19T02:22:50.636Z,21.52
2019-06-19T02:25:20.931Z,20.94
2019-06-19T02:27:47.381Z,20.95
2019-06-19T02:30:14.350Z,20.90
2019-06-19T02:32:42.861Z,20.91
2019-06-19T02:35:12.195Z,21.00
2019-06-19T02:37:38.444Z,21.24
2019-06-19T02:40:05.395Z,21.51
2019-06-19T02:42:32.262Z,21.71
2019-06-19T02:44:59.230Z,21.70
2019-06-19T02:47:26.163Z,21.72
2019-06-19T02:49:53.058Z,21.83
2019-06-19T02:52:20.032Z,21.80
2019-06-19T02:54:46.978Z,21.97
2019-06-19T02:57:13.925Z,21.98
2019-06-19T02:59:40.883Z,21.64
2019-06-19T03:02:07.794Z,21.68
2019-06-19T03:04:34.731Z,21.54
2019-06-19T03:07:01.676Z,21.65
2019-06-19T03:09:28.606Z,21.77
2019-06-19T03:11:55.481Z,21.91
2019-06-19T03:14:22.376Z,21.58
2019-06-19T03:16:49.320Z,21.18
2019-06-19T03:19:16.337Z,21.55
2019-06-19T03:21:43.560Z,21.86
2019-06-19T03:24:10.511Z,22.06
2019-06-19T03:26:37.373Z,21.91
2019-06-19T03:29:04.263Z,21.89
2019-06-19T03:31:35.404Z,21.97
2019-06-19T03:33:59.781Z,22.00
2019-06-19T03:36:26.719Z,21.92
2019-06-19T03:38:53.772Z,21.94
2019-06-19T03:41:20.733Z,21.91
2019-06-19T03:43:47.688Z,21.86
2019-06-19T03:46:14.652Z,21.65
2019-06-19T03:48:41.585Z,21.61
2019-06-19T03:51:08.457Z,21.89
2019-06-19T03:53:35.343Z,21.87
2019-06-19T03:56:02.301Z,21.84
2019-06-19T03:58:29.317Z,21.92
2019-06-19T04:00:56.205Z,22.06
2019-06-19T04:03:23.089Z,21.89
2019-06-19T04:05:50.164Z,21.51
2019-06-19T04:08:17.048Z,21.44
2019-06-19T04:10:44.191Z,21.43
2019-06-19T04:13:11.110Z,21.59
2019-06-19T04:15:37.969Z,21.33
2019-06-19T04:18:04.889Z,21.29
2019-06-19T04:20:32.133Z,21.38
2019-06-19T04:22:59.129Z,21.46
2019-06-19T04:25:26.126Z,21.21
2019-06-19T04:27:53.121Z,20.86
2019-06-19T04:30:20.274Z,21.00
2019-06-19T04:32:47.321Z,21.31
2019-06-19T04:35:14.273Z,21.10
2019-06-19T04:37:41.306Z,21.19
2019-06-19T04:40:08.176Z,21.24
2019-06-19T04:42:35.118Z,21.51
2019-06-19T04:45:01.981Z,21.57
2019-06-19T04:47:28.891Z,21.65
2019-06-19T04:49:55.848Z,21.62
2019-06-19T04:52:22.783Z,21.80
2019-06-19T04:54:49.660Z,22.01
2019-06-19T04:57:16.921Z,22.26
2019-06-19T04:59:44.182Z,22.31
2019-06-19T05:02:20.642Z,22.26
2019-06-19T05:04:39.728Z,22.26
2019-06-19T05:07:06.703Z,22.30
2019-06-19T05:09:33.610Z,22.36
2019-06-19T05:12:00.670Z,22.11
2019-06-19T05:14:27.663Z,22.06
2019-06-19T05:16:55.046Z,22.32
2019-06-19T05:19:21.931Z,22.61
2019-06-19T05:21:48.902Z,23.02
2019-06-19T05:24:15.765Z,23.03
2019-06-19T05:26:42.663Z,23.02
2019-06-19T05:29:09.620Z,23.11
2019-06-19T05:31:36.485Z,23.13
2019-06-19T05:34:03.447Z,23.02
2019-06-19T05:36:30.508Z,23.39
2019-06-19T05:38:57.394Z,23.80
2019-06-19T05:41:26.701Z,23.99
2019-06-19T05:43:53.660Z,23.84
2019-06-19T05:46:20.591Z,24.31
2019-06-19T05:48:47.774Z,24.35
2019-06-19T05:51:14.659Z,24.59
2019-06-19T05:53:41.714Z,24.80
2019-06-19T05:56:08.673Z,25.08
2019-06-19T05:58:35.530Z,25.13
2019-06-19T06:01:02.398Z,25.43
2019-06-19T06:03:29.267Z,25.13
2019-06-19T06:05:56.270Z,25.28
2019-06-19T06:08:23.260Z,25.27
2019-06-19T06:10:50.167Z,25.19
2019-06-19T06:13:17.435Z,25.31
2019-06-19T06:15:44.317Z,25.27
2019-06-19T06:18:11.839Z,25.24
2019-06-19T06:20:38.935Z,25.34
2019-06-19T06:23:05.826Z,25.26
2019-06-19T06:25:33.123Z,25.32
2019-06-19T06:28:00.467Z,25.19
2019-06-19T06:30:27.524Z,25.46
2019-06-19T06:33:07.827Z,25.26
2019-06-19T06:35:23.326Z,25.47
2019-06-19T06:37:50.198Z,25.47
2019-06-19T06:40:17.062Z,25.62
2019-06-19T06:42:44.890Z,25.58
2019-06-19T06:45:12.848Z,25.46
2019-06-19T06:47:39.878Z,25.49
2019-06-19T06:50:06.800Z,25.60
2019-06-19T06:52:33.669Z,25.59
2019-06-19T06:55:00.628Z,25.61
2019-06-19T06:57:27.580Z,25.65
2019-06-19T06:59:54.465Z,25.75
2019-06-19T07:02:21.428Z,25.86
2019-06-19T07:04:48.368Z,25.92
2019-06-19T07:07:15.568Z,26.12
2019-06-19T07:09:42.465Z,26.09
2019-06-19T07:12:09.787Z,26.06
2019-06-19T07:14:36.760Z,25.98
2019-06-19T07:17:03.629Z,26.10
2019-06-19T07:19:30.788Z,26.30
2019-06-19T07:21:57.705Z,26.42
2019-06-19T07:24:24.684Z,26.46
2019-06-19T07:26:53.298Z,26.42
2019-06-19T07:29:20.389Z,26.54
2019-06-19T07:31:47.261Z,26.57
2019-06-19T07:34:14.197Z,26.60
2019-06-19T07:36:41.547Z,26.63
2019-06-19T07:39:08.845Z,26.65
2019-06-19T07:41:36.018Z,26.76
2019-06-19T07:44:02.970Z,26.72
2019-06-19T07:46:30.805Z,26.80
2019-06-19T07:48:57.688Z,26.77
2019-06-19T07:51:24.666Z,26.89
2019-06-19T07:53:51.589Z,26.79
2019-06-19T07:56:18.477Z,26.56
2019-06-19T07:58:46.713Z,26.62
2019-06-19T08:01:13.809Z,26.74
2019-06-19T08:03:56.766Z,26.83
2019-06-19T08:06:09.327Z,26.96
2019-06-19T08:08:36.261Z,26.95
2019-06-19T08:11:03.132Z,26.91
2019-06-19T08:13:30.019Z,26.79
2019-06-19T08:15:56.984Z,26.87
2019-06-19T08:18:23.946Z,26.97
2019-06-19T08:20:50.900Z,27.11
2019-06-19T08:23:18.165Z,27.07
2019-06-19T08:25:45.330Z,27.12
2019-06-19T08:28:12.300Z,27.27
2019-06-19T08:30:40.322Z,27.36
2019-06-19T08:33:07.258Z,27.36
2019-06-19T08:35:34.219Z,27.40
2019-06-19T08:38:01.293Z,27.47
2019-06-19T08:40:28.243Z,27.54
2019-06-19T08:42:55.203Z,27.54
2019-06-19T08:45:22.145Z,27.57
2019-06-19T08:47:49.083Z,27.51
2019-06-19T08:50:18.370Z,27.70
2019-06-19T08:52:44.645Z,27.68
2019-06-19T08:55:11.600Z,27.71
2019-06-19T08:57:38.653Z,27.72
2019-06-19T09:00:05.695Z,27.75
2019-06-19T09:02:32.657Z,27.81
2019-06-19T09:04:59.576Z,27.80
2019-06-19T09:07:26.463Z,27.82
2019-06-19T09:09:53.440Z,27.88
2019-06-19T09:12:20.645Z,27.89
2019-06-19T09:14:47.536Z,27.90
2019-06-19T09:17:14.475Z,27.97
2019-06-19T09:19:42.506Z,27.97
2019-06-19T09:22:09.834Z,27.94
2019-06-19T09:24:37.804Z,27.88
2019-06-19T09:27:04.688Z,28.01
2019-06-19T09:29:31.558Z,27.94
2019-06-19T09:31:58.448Z,27.91
2019-06-19T09:34:26.470Z,27.91
2019-06-19T09:36:53.374Z,27.90
2019-06-19T09:39:20.337Z,27.86
2019-06-19T09:41:47.359Z,27.95
2019-06-19T09:44:14.229Z,27.92
2019-06-19T09:46:41.117Z,27.85
2019-06-19T09:49:08.068Z,27.83
2019-06-19T09:51:35.008Z,27.90
2019-06-19T09:54:04.499Z,27.95
2019-06-19T09:56:30.798Z,27.96
2019-06-19T09:58:58.806Z,27.91
2019-06-19T10:01:25.704Z,27.93
2019-06-19T10:03:52.673Z,27.88
2019-06-19T10:06:19.605Z,27.88
2019-06-19T10:08:46.461Z,27.91
2019-06-19T10:11:13.366Z,28.01
2019-06-19T10:13:40.381Z,28.04
2019-06-19T10:16:07.365Z,27.99
2019-06-19T10:18:34.332Z,28.03
2019-06-19T10:21:01.285Z,28.06
2019-06-19T10:23:28.158Z,28.03
2019-06-19T10:25:55.161Z,28.11
2019-06-19T10:28:22.100Z,28.05
2019-06-19T10:30:48.966Z,28.10
2019-06-19T10:33:15.834Z,28.07
2019-06-19T10:35:42.890Z,28.06
2019-06-19T10:38:09.834Z,28.17
2019-06-19T10:40:37.066Z,28.11
2019-06-19T10:43:03.951Z,28.03
2019-06-19T10:45:31.258Z,28.02
2019-06-19T10:47:58.227Z,28.21
2019-06-19T10:50:25.159Z,28.26
2019-06-19T10:52:52.034Z,28.24
2019-06-19T10:55:18.971Z,28.22
2019-06-19T10:57:45.845Z,28.27
2019-06-19T11:00:12.754Z,28.23
2019-06-19T11:02:39.680Z,28.17
2019-06-19T11:05:06.626Z,28.19
2019-06-19T11:07:33.499Z,28.29
2019-06-19T11:10:00.396Z,28.28
2019-06-19T11:12:27.352Z,28.21
2019-06-19T11:14:54.305Z,28.32
2019-06-19T11:17:21.264Z,28.31
2019-06-19T11:19:48.235Z,28.30
2019-06-19T11:22:15.196Z,28.32
2019-06-19T11:24:42.096Z,28.31
2019-06-19T11:27:09.064Z,28.36
2019-06-19T11:29:35.989Z,28.35
2019-06-19T11:32:02.883Z,28.33
2019-06-19T11:34:29.814Z,28.32
2019-06-19T11:36:56.703Z,28.27
2019-06-19T11:39:23.666Z,28.26
2019-06-19T11:41:50.616Z,28.24
2019-06-19T11:44:17.862Z,28.29
2019-06-19T11:46:44.727Z,28.36
2019-06-19T11:49:11.610Z,28.28
2019-06-19T11:51:38.497Z,28.30
2019-06-19T11:54:05.461Z,28.31
2019-06-19T11:56:32.422Z,28.16
2019-06-19T11:58:59.365Z,28.20
2019-06-19T12:01:26.228Z,28.17
2019-06-19T12:03:53.121Z,28.12
2019-06-19T12:06:20.084Z,28.07
2019-06-19T12:08:47.011Z,28.06
2019-06-19T12:11:15.055Z,28.18
2019-06-19T12:13:43.667Z,28.13
2019-06-19T12:16:10.632Z,28.09
2019-06-19T12:18:37.584Z,28.25
2019-06-19T12:21:04.912Z,28.10
2019-06-19T12:23:32.926Z,28.08
2019-06-19T12:25:59.880Z,28.13
2019-06-19T12:28:26.858Z,28.17
2019-06-19T12:30:53.742Z,27.99
2019-06-19T12:33:21.077Z,28.16
2019-06-19T12:35:48.420Z,28.14
2019-06-19T12:38:15.563Z,28.10
2019-06-19T12:40:42.474Z,28.10
2019-06-19T12:43:09.409Z,28.11
2019-06-19T12:45:36.376Z,28.05
2019-06-19T12:48:03.344Z,27.96
2019-06-19T12:50:30.277Z,28.04
2019-06-19T12:52:57.295Z,28.03
2019-06-19T12:55:26.740Z,28.02
2019-06-19T12:57:52.848Z,28.01
2019-06-19T13:00:19.802Z,28.03
2019-06-19T13:02:46.764Z,27.79
2019-06-19T13:05:13.708Z,27.90
2019-06-19T13:07:40.718Z,27.95
2019-06-19T13:10:07.934Z,28.02
2019-06-19T13:12:35.377Z,27.99
2019-06-19T13:15:02.424Z,27.86
2019-06-19T13:17:29.358Z,27.88
2019-06-19T13:19:56.505Z,28.00
2019-06-19T13:22:23.385Z,27.94
2019-06-19T13:24:50.410Z,27.94
2019-06-19T13:27:17.346Z,27.96
2019-06-19T13:29:44.496Z,27.99
2019-06-19T13:32:11.371Z,28.05
2019-06-19T13:34:38.312Z,28.04
2019-06-19T13:37:08.193Z,27.94
2019-06-19T13:39:34.885Z,28.04
2019-06-19T13:42:01.822Z,28.02
2019-06-19T13:44:28.701Z,28.01
2019-06-19T13:46:55.581Z,27.94
2019-06-19T13:49:22.552Z,27.89
2019-06-19T13:51:49.742Z,27.79
2019-06-19T13:54:30.301Z,27.88
2019-06-19T13:56:45.482Z,27.82
2019-06-19T13:59:12.354Z,27.83
2019-06-19T14:01:39.509Z,27.77
2019-06-19T14:04:06.769Z,27.88
2019-06-19T14:06:34.603Z,27.77
2019-06-19T14:09:01.868Z,27.77
2019-06-19T14:11:30.434Z,27.72
2019-06-19T14:13:57.318Z,27.68
2019-06-19T14:16:24.288Z,27.68
2019-06-19T14:18:51.611Z,27.76
2019-06-19T14:21:18.634Z,27.76
2019-06-19T14:23:45.553Z,27.81
2019-06-19T14:26:12.469Z,27.83
2019-06-19T14:28:39.447Z,27.77
2019-06-19T14:31:06.401Z,27.71
2019-06-19T14:33:33.395Z,27.75
2019-06-19T14:36:00.629Z,27.78
2019-06-19T14:38:27.773Z,27.74
2019-06-19T14:40:54.686Z,27.84
2019-06-19T14:43:21.636Z,27.78
2019-06-19T14:45:49.553Z,27.81
2019-06-19T14:48:16.473Z,27.77
2019-06-19T14:50:43.357Z,27.84
2019-06-19T14:53:10.243Z,27.79
2019-06-19T14:55:37.440Z,27.78
2019-06-19T14:58:04.699Z,27.70
2019-06-19T15:00:31.655Z,27.75
2019-06-19T15:02:58.745Z,27.67
2019-06-19T15:05:25.712Z,27.63
2019-06-19T15:07:58.207Z,27.68
2019-06-19T15:10:21.215Z,27.68
2019-06-19T15:12:48.227Z,27.77
2019-06-19T15:15:15.558Z,27.79
2019-06-19T15:17:42.487Z,27.75
2019-06-19T15:20:09.422Z,27.73
2019-06-19T15:22:37.440Z,27.79
2019-06-19T15:25:04.377Z,27.82
2019-06-19T15:27:32.542Z,27.73
2019-06-19T15:29:59.503Z,27.68
2019-06-19T15:32:26.427Z,27.76
2019-06-19T15:34:53.605Z,27.78
2019-06-19T15:37:20.580Z,27.82
2019-06-19T15:39:47.630Z,27.81
2019-06-19T15:42:14.583Z,27.88
2019-06-19T15:44:41.539Z,27.85
2019-06-19T15:47:08.497Z,27.83
2019-06-19T15:49:35.458Z,27.85
2019-06-19T15:52:02.734Z,27.78
2019-06-19T15:54:30.754Z,27.73
2019-06-19T15:56:57.940Z,27.74
2019-06-19T15:59:24.910Z,27.72
2019-06-19T16:01:51.868Z,27.83
2019-06-19T16:04:19.098Z,27.90
2019-06-19T16:06:46.085Z,27.80
2019-06-19T16:09:13.047Z,27.84
2019-06-19T16:11:40.038Z,27.88
2019-06-19T16:14:07.017Z,27.85
2019-06-19T16:16:33.898Z,27.80
2019-06-19T16:19:01.194Z,27.85
2019-06-19T16:21:28.175Z,27.88
2019-06-19T16:23:55.143Z,27.80
2019-06-19T16:26:22.086Z,27.83
2019-06-19T16:28:49.074Z,27.81
2019-06-19T16:31:16.418Z,27.83
2019-06-19T16:33:43.327Z,27.81
2019-06-19T16:36:10.300Z,27.83
2019-06-19T16:38:46.915Z,27.82
2019-06-19T16:41:06.234Z,27.89
2019-06-19T16:43:33.168Z,27.90
2019-06-19T16:46:00.246Z,27.90
2019-06-19T16:48:27.218Z,27.83
2019-06-19T16:50:54.852Z,27.87
2019-06-19T16:53:21.798Z,27.79
2019-06-19T16:55:48.666Z,27.86
2019-06-19T16:58:15.660Z,27.85
2019-06-19T17:00:42.637Z,27.84
2019-06-19T17:03:09.958Z,27.92
2019-06-19T17:05:37.238Z,27.95
2019-06-19T17:08:04.208Z,27.94
2019-06-19T17:10:31.143Z,27.93
2019-06-19T17:12:58.142Z,27.83
2019-06-19T17:15:25.127Z,27.85
2019-06-19T17:17:52.069Z,27.88
2019-06-19T17:20:18.981Z,27.93
2019-06-19T17:22:45.894Z,27.90
2019-06-19T17:25:12.868Z,27.88
2019-06-19T17:27:39.828Z,27.82
2019-06-19T17:30:06.824Z,27.90
2019-06-19T17:32:33.736Z,27.96
2019-06-19T17:35:00.679Z,28.00
2019-06-19T17:37:27.561Z,28.00
2019-06-19T17:39:54.538Z,27.91
2019-06-19T17:42:21.485Z,27.89
2019-06-19T17:44:48.441Z,27.84
2019-06-19T17:47:15.417Z,27.83
2019-06-19T17:49:42.439Z,27.79
2019-06-19T17:52:09.347Z,27.75
2019-06-19T17:54:36.332Z,27.65
2019-06-19T17:57:05.233Z,27.71
2019-06-19T17:59:31.849Z,27.63
2019-06-19T18:01:58.807Z,27.45
2019-06-19T18:04:25.836Z,27.46
2019-06-19T18:06:52.859Z,27.49
2019-06-19T18:09:19.821Z,27.37
2019-06-19T18:11:47.121Z,27.43
2019-06-19T18:14:14.042Z,27.43
2019-06-19T18:16:41.426Z,27.63
2019-06-19T18:19:08.775Z,27.72
2019-06-19T18:21:36.880Z,27.68
2019-06-19T18:24:04.030Z,27.69
2019-06-19T18:26:30.999Z,27.51
2019-06-19T18:28:57.984Z,27.61
2019-06-19T18:31:24.932Z,27.54
2019-06-19T18:33:51.889Z,27.50
2019-06-19T18:36:18.793Z,27.28
2019-06-19T18:38:46.753Z,27.34
2019-06-19T18:41:13.696Z,27.33
2019-06-19T18:43:40.585Z,27.23
2019-06-19T18:46:07.532Z,27.26
2019-06-19T18:48:34.406Z,27.32
2019-06-19T18:51:01.780Z,27.04
2019-06-19T18:53:28.950Z,27.02
2019-06-19T18:55:56.408Z,27.04
2019-06-19T18:58:23.357Z,27.14
2019-06-19T19:00:50.542Z,27.19
2019-06-19T19:03:17.511Z,27.12
2019-06-19T19:05:44.496Z,27.07
2019-06-19T19:08:11.475Z,26.90
2019-06-19T19:10:38.406Z,26.76
2019-06-19T19:13:05.273Z,26.93
2019-06-19T19:15:32.186Z,27.13
2019-06-19T19:17:59.160Z,27.08
2019-06-19T19:20:26.401Z,27.12
2019-06-19T19:22:53.578Z,27.05
2019-06-19T19:25:20.529Z,26.50
2019-06-19T19:27:47.570Z,26.26
2019-06-19T19:30:15.424Z,26.18
2019-06-19T19:32:42.385Z,26.06
2019-06-19T19:35:09.417Z,26.10
2019-06-19T19:37:36.377Z,26.14
2019-06-19T19:40:03.293Z,26.06
2019-06-19T19:42:30.248Z,26.23
2019-06-19T19:44:57.605Z,26.30
2019-06-19T19:47:24.518Z,26.42
2019-06-19T19:49:51.646Z,26.52
2019-06-19T19:52:18.607Z,26.47
2019-06-19T19:54:45.508Z,26.27
2019-06-19T19:57:12.467Z,26.14
2019-06-19T19:59:41.343Z,25.99
2019-06-19T20:02:07.987Z,26.09
2019-06-19T20:04:34.866Z,26.18
2019-06-19T20:07:01.806Z,26.31
2019-06-19T20:09:28.765Z,26.48
2019-06-19T20:11:55.795Z,26.59
2019-06-19T20:14:22.734Z,26.68
2019-06-19T20:16:49.666Z,26.55
2019-06-19T20:19:16.568Z,26.58
2019-06-19T20:21:43.536Z,26.61
2019-06-19T20:24:10.492Z,26.64
2019-06-19T20:26:37.475Z,26.63
2019-06-19T20:29:04.679Z,26.66
2019-06-19T20:31:31.622Z,26.72
2019-06-19T20:33:58.647Z,26.74
2019-06-19T20:36:25.553Z,26.76
2019-06-19T20:38:52.503Z,26.77
2019-06-19T20:41:19.462Z,26.76
2019-06-19T20:43:46.345Z,26.67
2019-06-19T20:46:24.613Z,26.66
2019-06-19T20:48:41.868Z,26.66
2019-06-19T20:51:08.829Z,26.66
2019-06-19T20:53:35.979Z,26.37
2019-06-19T20:56:02.891Z,26.29
2019-06-19T20:58:29.847Z,26.26
2019-06-19T21:00:56.767Z,26.06
2019-06-19T21:03:24.179Z,25.98
2019-06-19T21:05:51.531Z,26.13
2019-06-19T21:08:18.478Z,26.12
2019-06-19T21:10:45.428Z,26.03
2019-06-19T21:13:12.688Z,26.01
2019-06-19T21:15:44.131Z,26.08
2019-06-19T21:18:08.350Z,25.78
2019-06-19T21:20:35.271Z,25.71
2019-06-19T21:23:02.180Z,25.80
2019-06-19T21:25:29.145Z,25.60
2019-06-19T21:27:57.508Z,25.77
2019-06-19T21:30:24.443Z,25.42
2019-06-19T21:32:51.396Z,25.72
2019-06-19T21:35:18.363Z,25.67
2019-06-19T21:37:45.299Z,25.73
2019-06-19T21:40:12.169Z,25.63
2019-06-19T21:42:39.116Z,25.53
2019-06-19T21:45:07.728Z,25.59
2019-06-19T21:47:34.972Z,25.43
2019-06-19T21:50:01.973Z,25.40
2019-06-19T21:52:28.973Z,25.32
2019-06-19T21:54:56.192Z,25.53
2019-06-19T21:57:23.106Z,25.44
2019-06-19T21:59:50.601Z,25.38
2019-06-19T22:02:17.576Z,25.44
2019-06-19T22:04:44.545Z,25.35
2019-06-19T22:07:15.163Z,25.31
2019-06-19T22:09:40.192Z,25.07
2019-06-19T22:12:07.141Z,25.05
2019-06-19T22:14:34.110Z,25.16
2019-06-19T22:17:02.146Z,25.08
2019-06-19T22:19:29.086Z,24.87
2019-06-19T22:21:55.962Z,24.73
2019-06-19T22:24:23.921Z,24.76
2019-06-19T22:26:50.882Z,24.92
2019-06-19T22:29:17.836Z,24.99
2019-06-19T22:31:44.786Z,24.86
2019-06-19T22:34:11.650Z,25.00
2019-06-19T22:36:38.578Z,24.98
2019-06-19T22:39:05.533Z,24.73
2019-06-19T22:41:34.096Z,24.81
2019-06-19T22:44:01.378Z,24.74
2019-06-19T22:46:28.278Z,24.67
2019-06-19T22:48:55.163Z,24.86
2019-06-19T22:51:22.122Z,24.87
2019-06-19T22:53:49.010Z,24.82
2019-06-19T22:56:15.945Z,24.78
2019-06-19T22:58:42.880Z,24.93
2019-06-19T23:01:09.759Z,24.63
2019-06-19T23:03:36.651Z,24.28
2019-06-19T23:06:04.014Z,24.29
2019-06-19T23:08:30.980Z,24.25
2019-06-19T23:10:57.918Z,23.95
2019-06-19T23:13:24.814Z,23.91
2019-06-19T23:15:51.772Z,23.89
2019-06-19T23:18:19.097Z,23.77
2019-06-19T23:20:46.049Z,23.74
2019-06-19T23:23:12.952Z,23.70
2019-06-19T23:25:39.906Z,23.83
2019-06-19T23:28:06.797Z,23.97
2019-06-19T23:30:33.752Z,24.26
2019-06-19T23:33:00.742Z,24.38
2019-06-19T23:35:27.680Z,24.52
2019-06-19T23:37:54.625Z,24.51
2019-06-19T23:42:48.185Z,24.59
2019-06-19T23:45:15.068Z,24.72
2019-06-19T23:47:42.040Z,24.70
2019-06-19T23:50:09.007Z,24.66
2019-06-19T23:52:35.954Z,24.74
2019-06-19T23:55:02.819Z,24.78
2019-06-19T23:57:29.718Z,24.32
2019-06-19T23:59:56.689Z,24.49
